Time;durP1;ratioP1;P1;durP2;ratioP2;P2;SDS_P1;SDS_P2;PMS_P1;PMS_P2;Temp;Humidity;BMP_temperature;BMP_pressure;BME280_temperature;BME280_humidity;BME280_pressure;Samples;Min_cycle;Max_cycle;Signal;HPM_P1;HPM_P2
2021/09/02 00:00:30;;;;;;;44.13;22.65;;;;;;;;;;5033539;28;20227;-80
2021/09/02 00:02:56;;;;;;;48.05;22.15;;;;;;;;;;5016170;28;20182;-79
2021/09/02 00:05:22;;;;;;;39.67;21.48;;;;;;;;;;5033687;28;20204;-77
2021/09/02 00:07:48;;;;;;;41.00;20.47;;;;;;;;;;5033749;28;20178;-77
2021/09/02 00:10:14;;;;;;;44.60;23.83;;;;;;;;;;5033313;28;20475;-79
2021/09/02 00:12:40;;;;;;;40.10;21.73;;;;;;;;;;5033704;28;20936;-76
2021/09/02 00:15:07;;;;;;;46.50;24.43;;;;;;;;;;5034719;28;20496;-79
2021/09/02 00:17:33;;;;;;;45.20;22.58;;;;;;;;;;5033431;28;20458;-77
2021/09/02 00:19:59;;;;;;;44.33;22.00;;;;;;;;;;5033066;28;20204;-77
2021/09/02 00:22:25;;;;;;;45.57;22.97;;;;;;;;;;5033390;28;20182;-78
2021/09/02 00:24:51;;;;;;;41.90;22.15;;;;;;;;;;5032949;28;20405;-78
2021/09/02 00:27:17;;;;;;;38.25;19.75;;;;;;;;;;5033273;28;20184;-78
2021/09/02 00:29:43;;;;;;;39.05;21.55;;;;;;;;;;5032930;28;20197;-79
2021/09/02 00:32:10;;;;;;;40.65;21.65;;;;;;;;;;5033312;28;20200;-81
2021/09/02 00:34:36;;;;;;;44.45;20.52;;;;;;;;;;5033244;28;20573;-80
2021/09/02 00:37:02;;;;;;;45.73;21.73;;;;;;;;;;5033292;28;20257;-79
2021/09/02 00:39:28;;;;;;;39.05;21.95;;;;;;;;;;5015049;28;20546;-78
2021/09/02 00:41:54;;;;;;;33.07;19.47;;;;;;;;;;5033125;28;20233;-78
2021/09/02 00:44:33;;;;;;;50.88;22.23;;;;;;;;;;5033028;28;20444;-80
2021/09/02 00:47:00;;;;;;;42.25;23.33;;;;;;;;;;5033096;28;20662;-79
2021/09/02 00:49:26;;;;;;;40.45;22.20;;;;;;;;;;5032584;28;20288;-80
2021/09/02 00:51:52;;;;;;;43.78;22.45;;;;;;;;;;5032963;28;20256;-80
2021/09/02 00:54:18;;;;;;;45.77;23.40;;;;;;;;;;5033231;28;20210;-79
2021/09/02 00:56:44;;;;;;;47.40;22.60;;;;;;;;;;5033303;28;20413;-81
2021/09/02 00:59:11;;;;;;;36.90;21.10;;;;;;;;;;5032543;28;20194;-79
2021/09/02 01:01:37;;;;;;;50.97;22.52;;;;;;;;;;5033002;28;20405;-78
2021/09/02 01:04:04;;;;;;;45.78;22.00;;;;;;;;;;5032985;28;20601;-80
2021/09/02 01:06:30;;;;;;;43.28;21.30;;;;;;;;;;5032871;28;20198;-79
2021/09/02 01:08:56;;;;;;;49.10;21.97;;;;;;;;;;5032523;28;20236;-80
2021/09/02 01:11:23;;;;;;;39.42;20.50;;;;;;;;;;5032740;28;20718;-79
2021/09/02 01:13:49;;;;;;;38.53;21.40;;;;;;;;;;5032820;28;20170;-79
2021/09/02 01:16:15;;;;;;;49.92;24.80;;;;;;;;;;5015435;28;20530;-79
2021/09/02 01:18:41;;;;;;;48.17;23.70;;;;;;;;;;5014904;28;20204;-77
2021/09/02 01:21:07;;;;;;;50.47;23.63;;;;;;;;;;4998819;28;20417;-81
2021/09/02 01:23:39;;;;;;;37.10;22.55;;;;;;;;;;5032847;28;20216;-80
2021/09/02 01:26:15;;;;;;;38.20;20.58;;;;;;;;;;5032685;28;20198;-77
2021/09/02 01:28:42;;;;;;;43.25;20.60;;;;;;;;;;5032318;28;20205;-79
2021/09/02 01:31:08;;;;;;;44.88;21.90;;;;;;;;;;5015157;28;20546;-79
2021/09/02 01:33:34;;;;;;;37.25;20.52;;;;;;;;;;5032559;28;20576;-81
2021/09/02 01:36:00;;;;;;;42.78;21.98;;;;;;;;;;5033072;28;20653;-78
2021/09/02 01:38:26;;;;;;;39.22;20.20;;;;;;;;;;5036436;28;20673;-80
2021/09/02 01:40:52;;;;;;;42.83;20.97;;;;;;;;;;5035991;28;20213;-80
2021/09/02 01:43:18;;;;;;;46.27;22.33;;;;;;;;;;5036350;28;20506;-78
2021/09/02 01:45:44;;;;;;;40.70;19.65;;;;;;;;;;5018381;28;20815;-81
2021/09/02 01:48:10;;;;;;;48.53;20.60;;;;;;;;;;5036289;28;20174;-80
2021/09/02 01:50:42;;;;;;;41.63;20.08;;;;;;;;;;5018013;28;20206;-79
2021/09/02 01:53:10;;;;;;;39.92;21.00;;;;;;;;;;5036117;28;20577;-78
2021/09/02 01:55:36;;;;;;;40.67;21.77;;;;;;;;;;5035907;28;20185;-80
2021/09/02 01:58:02;;;;;;;39.42;21.85;;;;;;;;;;5036007;28;20628;-79
2021/09/02 02:00:28;;;;;;;40.17;20.30;;;;;;;;;;5035651;28;20553;-78
2021/09/02 02:02:54;;;;;;;38.75;19.65;;;;;;;;;;5036221;28;20179;-79
2021/09/02 02:05:20;;;;;;;43.05;21.50;;;;;;;;;;5036179;28;20200;-79
2021/09/02 02:07:47;;;;;;;42.30;21.83;;;;;;;;;;5036070;28;20182;-79
2021/09/02 02:10:14;;;;;;;41.45;21.88;;;;;;;;;;5035818;28;20206;-77
2021/09/02 02:12:40;;;;;;;40.95;20.10;;;;;;;;;;5036237;28;20182;-78
2021/09/02 02:15:06;;;;;;;41.22;21.27;;;;;;;;;;5036488;28;20226;-79
2021/09/02 02:17:32;;;;;;;39.80;18.25;;;;;;;;;;5036183;28;20247;-77
2021/09/02 02:19:59;;;;;;;45.80;22.13;;;;;;;;;;5035793;28;20202;-79
2021/09/02 02:22:25;;;;;;;47.65;21.33;;;;;;;;;;5035494;28;20182;-81
2021/09/02 02:24:51;;;;;;;45.40;22.85;;;;;;;;;;5035494;28;20178;-79
2021/09/02 02:27:17;;;;;;;43.33;22.90;;;;;;;;;;5035531;28;20178;-78
2021/09/02 02:29:43;;;;;;;55.50;23.40;;;;;;;;;;5035155;28;20467;-81
2021/09/02 02:32:09;;;;;;;54.08;25.10;;;;;;;;;;5035267;28;20478;-78
2021/09/02 02:34:35;;;;;;;60.65;25.27;;;;;;;;;;5035771;28;20175;-78
2021/09/02 02:37:01;;;;;;;44.10;22.10;;;;;;;;;;5035390;28;20181;-80
2021/09/02 02:39:27;;;;;;;40.80;21.23;;;;;;;;;;5034745;28;20452;-78
2021/09/02 02:41:53;;;;;;;46.95;20.55;;;;;;;;;;5035171;28;20171;-80
2021/09/02 02:44:19;;;;;;;35.83;19.23;;;;;;;;;;5035052;28;20653;-78
2021/09/02 02:46:45;;;;;;;49.07;23.50;;;;;;;;;;5034706;28;20452;-79
2021/09/02 02:49:11;;;;;;;43.97;21.80;;;;;;;;;;5017206;28;20432;-79
2021/09/02 02:51:37;;;;;;;43.47;23.17;;;;;;;;;;5035132;28;20408;-79
2021/09/02 02:54:04;;;;;;;45.58;20.58;;;;;;;;;;5034852;28;20413;-80
2021/09/02 02:56:30;;;;;;;40.45;18.85;;;;;;;;;;5034721;28;20218;-80
2021/09/02 02:58:56;;;;;;;38.03;19.83;;;;;;;;;;5034479;28;20182;-79
2021/09/02 03:01:22;;;;;;;50.33;22.58;;;;;;;;;;5035014;28;20447;-77
2021/09/02 03:03:48;;;;;;;49.90;22.90;;;;;;;;;;5017487;28;20695;-79
2021/09/02 03:06:14;;;;;;;44.95;22.73;;;;;;;;;;5034537;28;20444;-80
2021/09/02 03:08:40;;;;;;;40.78;22.45;;;;;;;;;;5034520;28;20174;-77
2021/09/02 03:11:07;;;;;;;43.93;23.27;;;;;;;;;;5034728;28;20236;-77
2021/09/02 03:13:33;;;;;;;43.37;23.23;;;;;;;;;;5034603;28;20401;-78
2021/09/02 03:15:59;;;;;;;45.08;20.92;;;;;;;;;;5034570;28;20830;-79
2021/09/02 03:18:25;;;;;;;42.50;22.40;;;;;;;;;;5034515;28;20206;-79
2021/09/02 03:20:51;;;;;;;45.90;22.37;;;;;;;;;;5034463;28;20941;-78
2021/09/02 03:23:17;;;;;;;53.92;24.92;;;;;;;;;;5034735;28;20409;-78
2021/09/02 03:25:43;;;;;;;49.42;24.42;;;;;;;;;;5034588;28;20202;-80
2021/09/02 03:28:09;;;;;;;43.55;21.58;;;;;;;;;;5034488;28;20209;-78
2021/09/02 03:30:35;;;;;;;46.63;22.80;;;;;;;;;;5033920;28;20548;-81
2021/09/02 03:33:01;;;;;;;53.88;22.50;;;;;;;;;;5034279;28;20413;-79
2021/09/02 03:35:27;;;;;;;42.05;22.77;;;;;;;;;;5034280;28;20171;-77
2021/09/02 03:37:53;;;;;;;47.80;23.97;;;;;;;;;;5034267;28;20181;-79
2021/09/02 03:40:19;;;;;;;46.45;23.05;;;;;;;;;;5033638;28;20803;-80
2021/09/02 03:42:45;;;;;;;48.07;25.17;;;;;;;;;;5033955;28;20170;-78
2021/09/02 03:45:11;;;;;;;43.10;22.73;;;;;;;;;;5033986;28;20456;-78
2021/09/02 03:47:37;;;;;;;42.13;21.70;;;;;;;;;;5034076;28;20170;-79
2021/09/02 03:50:04;;;;;;;40.70;21.77;;;;;;;;;;5035255;28;20425;-77
2021/09/02 03:52:31;;;;;;;47.27;22.20;;;;;;;;;;5033997;28;20405;-80
2021/09/02 03:54:57;;;;;;;48.13;21.93;;;;;;;;;;5033730;28;20413;-80
2021/09/02 03:57:23;;;;;;;45.17;21.83;;;;;;;;;;5016308;28;20425;-79
2021/09/02 03:59:49;;;;;;;45.10;21.63;;;;;;;;;;5032687;28;20463;-77
2021/09/02 04:02:15;;;;;;;38.80;20.50;;;;;;;;;;5033732;28;20186;-80
2021/09/02 04:04:41;;;;;;;42.50;20.40;;;;;;;;;;5033667;28;20452;-78
2021/09/02 04:07:07;;;;;;;42.20;21.63;;;;;;;;;;5033758;28;20476;-79
2021/09/02 04:09:33;;;;;;;43.65;20.15;;;;;;;;;;5016012;28;20947;-77
2021/09/02 04:11:59;;;;;;;34.40;19.63;;;;;;;;;;5033582;28;20178;-78
2021/09/02 04:14:25;;;;;;;39.00;21.25;;;;;;;;;;5033688;28;20217;-81
2021/09/02 04:16:54;;;;;;;38.97;19.85;;;;;;;;;;5033510;28;20206;-80
2021/09/02 04:19:20;;;;;;;40.50;20.50;;;;;;;;;;5015469;28;20213;-78
2021/09/02 04:21:46;;;;;;;50.33;21.93;;;;;;;;;;5033589;28;20170;-79
2021/09/02 04:24:12;;;;;;;39.13;20.13;;;;;;;;;;5033484;28;20517;-79
2021/09/02 04:26:38;;;;;;;43.90;20.80;;;;;;;;;;5033334;28;20476;-80
2021/09/02 04:29:04;;;;;;;40.43;20.30;;;;;;;;;;5032798;28;20425;-80
2021/09/02 04:31:30;;;;;;;34.90;19.70;;;;;;;;;;5033328;28;20495;-77
2021/09/02 04:33:56;;;;;;;38.27;19.60;;;;;;;;;;5033325;28;20500;-80
2021/09/02 04:36:22;;;;;;;38.07;20.77;;;;;;;;;;5033321;28;20408;-79
2021/09/02 04:38:48;;;;;;;32.33;18.97;;;;;;;;;;5032795;28;20409;-80
2021/09/02 04:41:14;;;;;;;38.10;21.43;;;;;;;;;;5032989;28;20423;-80
2021/09/02 04:43:41;;;;;;;34.38;19.13;;;;;;;;;;5015818;28;20984;-79
2021/09/02 04:46:07;;;;;;;38.10;17.97;;;;;;;;;;4999041;28;20237;-80
2021/09/02 04:48:33;;;;;;;41.05;19.80;;;;;;;;;;5032761;28;20405;-79
2021/09/02 04:50:59;;;;;;;41.00;21.17;;;;;;;;;;5032878;28;20201;-78
2021/09/02 04:53:25;;;;;;;41.33;20.33;;;;;;;;;;5032959;28;20444;-78
2021/09/02 04:55:51;;;;;;;42.97;21.23;;;;;;;;;;5033053;28;20409;-77
2021/09/02 04:58:17;;;;;;;40.27;19.17;;;;;;;;;;5032968;28;20812;-80
2021/09/02 05:00:43;;;;;;;34.10;18.15;;;;;;;;;;5032665;28;20828;-79
2021/09/02 05:03:09;;;;;;;39.28;17.75;;;;;;;;;;5015357;28;20181;-78
2021/09/02 05:05:35;;;;;;;36.50;19.40;;;;;;;;;;5014855;28;20305;-78
2021/09/02 05:08:01;;;;;;;35.53;19.02;;;;;;;;;;5032966;28;20485;-78
2021/09/02 05:10:28;;;;;;;34.42;18.33;;;;;;;;;;5033693;28;20205;-79
2021/09/02 05:12:54;;;;;;;44.17;20.33;;;;;;;;;;5037034;28;20178;-78
2021/09/02 05:15:20;;;;;;;28.83;17.40;;;;;;;;;;5019306;28;20268;-79
2021/09/02 05:17:46;;;;;;;36.60;18.35;;;;;;;;;;5036803;28;20178;-79
2021/09/02 05:20:13;;;;;;;40.08;19.75;;;;;;;;;;5018798;28;20201;-78
2021/09/02 05:22:39;;;;;;;40.22;20.25;;;;;;;;;;5036852;28;20628;-77
2021/09/02 05:25:06;;;;;;;32.83;16.80;;;;;;;;;;5036800;28;20540;-78
2021/09/02 05:27:32;;;;;;;33.33;18.80;;;;;;;;;;5036737;28;20416;-77
2021/09/02 05:29:58;;;;;;;41.50;20.00;;;;;;;;;;5036275;28;20193;-79
2021/09/02 05:32:24;;;;;;;43.25;21.05;;;;;;;;;;5036622;28;20182;-79
2021/09/02 05:34:50;;;;;;;44.07;21.77;;;;;;;;;;5018808;28;20186;-77
2021/09/02 05:37:16;;;;;;;47.17;19.50;;;;;;;;;;5036464;28;20416;-78
2021/09/02 05:39:42;;;;;;;40.73;19.47;;;;;;;;;;5035884;28;20464;-78
2021/09/02 05:42:09;;;;;;;44.73;20.87;;;;;;;;;;5036565;28;20470;-77
2021/09/02 05:44:35;;;;;;;45.95;21.73;;;;;;;;;;5019940;28;20417;-77
2021/09/02 05:47:01;;;;;;;50.63;22.57;;;;;;;;;;5036195;28;20194;-77
2021/09/02 05:49:27;;;;;;;53.77;23.10;;;;;;;;;;5035751;28;20959;-77
2021/09/02 05:51:53;;;;;;;51.33;24.10;;;;;;;;;;5036159;28;20417;-77
2021/09/02 05:54:19;;;;;;;51.77;22.93;;;;;;;;;;5036064;28;20440;-79
2021/09/02 05:56:45;;;;;;;56.60;24.60;;;;;;;;;;5036176;28;20839;-80
2021/09/02 05:59:11;;;;;;;57.92;24.45;;;;;;;;;;5035633;28;20429;-79
2021/09/02 06:01:38;;;;;;;50.00;23.25;;;;;;;;;;5035956;28;20189;-79
2021/09/02 06:04:04;;;;;;;61.88;25.15;;;;;;;;;;5035883;28;20232;-78
2021/09/02 06:06:30;;;;;;;51.53;24.33;;;;;;;;;;5035789;28;20206;-78
2021/09/02 06:08:56;;;;;;;64.00;24.87;;;;;;;;;;5035587;28;20189;-77
2021/09/02 06:11:22;;;;;;;55.37;24.30;;;;;;;;;;5035906;28;20436;-79
2021/09/02 06:13:48;;;;;;;62.78;27.00;;;;;;;;;;5036088;28;20508;-79
2021/09/02 06:16:14;;;;;;;64.82;26.60;;;;;;;;;;5035780;28;20178;-80
2021/09/02 06:18:40;;;;;;;59.92;26.38;;;;;;;;;;5035491;28;20515;-79
2021/09/02 06:21:06;;;;;;;68.13;27.02;;;;;;;;;;5035773;28;20537;-77
2021/09/02 06:23:32;;;;;;;77.23;28.37;;;;;;;;;;5034746;28;20186;-77
2021/09/02 06:25:58;;;;;;;70.30;28.90;;;;;;;;;;5035516;28;20826;-79
2021/09/02 06:28:24;;;;;;;66.63;28.30;;;;;;;;;;5035546;28;20414;-77
2021/09/02 06:30:50;;;;;;;67.35;27.75;;;;;;;;;;5035101;28;20425;-78
2021/09/02 06:33:16;;;;;;;68.37;28.50;;;;;;;;;;5035414;28;20182;-78
2021/09/02 06:35:42;;;;;;;60.53;28.73;;;;;;;;;;5035367;28;20413;-77
2021/09/02 06:38:08;;;;;;;71.33;27.63;;;;;;;;;;5035387;28;20886;-82
2021/09/02 06:40:34;;;;;;;64.20;28.50;;;;;;;;;;5034315;28;20482;-78
2021/09/02 06:43:01;;;;;;;62.97;27.07;;;;;;;;;;5035235;28;20513;-79
2021/09/02 06:45:27;;;;;;;51.93;26.70;;;;;;;;;;5034892;28;20471;-77
2021/09/02 06:47:53;;;;;;;69.60;29.27;;;;;;;;;;5035053;28;20500;-79
2021/09/02 06:50:19;;;;;;;69.50;29.43;;;;;;;;;;5034631;28;20396;-79
2021/09/02 06:52:45;;;;;;;59.13;28.13;;;;;;;;;;5035251;28;20413;-79
2021/09/02 06:55:11;;;;;;;67.30;30.23;;;;;;;;;;5017345;28;20448;-76
2021/09/02 06:57:37;;;;;;;60.33;29.67;;;;;;;;;;5017040;28;20444;-76
2021/09/02 07:00:05;;;;;;;73.90;28.70;;;;;;;;;;5016892;28;20494;-75
2021/09/02 07:02:31;;;;;;;74.73;32.50;;;;;;;;;;5034656;28;20493;-75
2021/09/02 07:04:56;;;;;;;69.83;30.87;;;;;;;;;;5034666;28;20444;-75
2021/09/02 07:07:22;;;;;;;70.93;31.10;;;;;;;;;;5034700;28;20448;-76
2021/09/02 07:09:48;;;;;;;70.83;32.27;;;;;;;;;;5034364;28;20429;-80
2021/09/02 07:12:14;;;;;;;62.77;30.80;;;;;;;;;;5034429;28;20551;-79
2021/09/02 07:14:40;;;;;;;61.87;30.70;;;;;;;;;;5034821;28;20825;-80
2021/09/02 07:17:07;;;;;;;72.70;32.27;;;;;;;;;;5034605;28;20435;-82
2021/09/02 07:19:32;;;;;;;61.07;29.47;;;;;;;;;;5034024;28;20426;-80
2021/09/02 07:21:59;;;;;;;65.70;30.10;;;;;;;;;;5034531;28;20504;-79
2021/09/02 07:24:25;;;;;;;65.70;31.13;;;;;;;;;;5018741;28;20413;-82
2021/09/02 07:26:51;;;;;;;62.17;29.37;;;;;;;;;;5034486;28;20829;-81
2021/09/02 07:29:17;;;;;;;65.70;30.43;;;;;;;;;;5033972;28;20449;-81
2021/09/02 07:31:43;;;;;;;60.93;29.47;;;;;;;;;;5034689;28;20405;-80
2021/09/02 07:34:09;;;;;;;54.50;27.87;;;;;;;;;;5034126;28;20409;-81
2021/09/02 07:36:36;;;;;;;56.43;29.90;;;;;;;;;;5016658;28;20417;-82
2021/09/02 07:39:02;;;;;;;52.60;28.97;;;;;;;;;;5033898;28;20440;-80
2021/09/02 07:41:28;;;;;;;60.67;29.97;;;;;;;;;;5016755;28;20408;-80
2021/09/02 07:43:54;;;;;;;56.23;28.70;;;;;;;;;;5034247;28;20445;-81
2021/09/02 07:46:20;;;;;;;57.97;28.47;;;;;;;;;;5033766;28;20843;-77
2021/09/02 07:48:46;;;;;;;57.23;29.13;;;;;;;;;;5015954;28;20470;-77
2021/09/02 07:51:17;;;;;;;51.93;28.60;;;;;;;;;;5033681;28;20420;-78
2021/09/02 07:53:43;;;;;;;55.00;27.23;;;;;;;;;;5033991;28;20413;-77
2021/09/02 07:56:09;;;;;;;49.37;27.77;;;;;;;;;;5033782;28;20512;-77
2021/09/02 07:58:35;;;;;;;52.40;26.67;;;;;;;;;;5015625;28;20413;-77
2021/09/02 08:01:01;;;;;;;52.27;28.33;;;;;;;;;;5033646;28;20455;-77
2021/09/02 08:03:27;;;;;;;52.83;26.67;;;;;;;;;;5033740;28;20413;-78
2021/09/02 08:05:53;;;;;;;48.47;24.33;;;;;;;;;;5033564;28;20456;-78
2021/09/02 08:08:20;;;;;;;45.30;26.60;;;;;;;;;;5033689;28;20425;-78
2021/09/02 08:10:47;;;;;;;48.43;26.83;;;;;;;;;;5032990;28;20421;-75
2021/09/02 08:13:13;;;;;;;54.57;29.57;;;;;;;;;;5033501;28;20796;-75
2021/09/02 08:15:40;;;;;;;52.13;30.00;;;;;;;;;;5033568;28;20901;-77
2021/09/02 08:18:07;;;;;;;68.70;34.20;;;;;;;;;;5033636;28;20424;-77
2021/09/02 08:20:33;;;;;;;58.73;33.50;;;;;;;;;;5033114;28;20499;-78
2021/09/02 08:23:00;;;;;;;60.07;33.57;;;;;;;;;;5033026;28;20413;-78
2021/09/02 08:25:26;;;;;;;55.87;31.20;;;;;;;;;;5033340;28;20448;-77
2021/09/02 08:27:53;;;;;;;48.07;30.07;;;;;;;;;;5033511;28;20441;-78
2021/09/02 08:30:20;;;;;;;40.10;26.57;;;;;;;;;;5032873;28;20821;-78
2021/09/02 08:32:47;;;;;;;34.63;22.17;;;;;;;;;;5033217;28;20444;-78
2021/09/02 08:35:14;;;;;;;30.70;17.90;;;;;;;;;;5033132;28;20412;-75
2021/09/02 08:37:40;;;;;;;26.33;15.77;;;;;;;;;;5033340;28;20854;-78
2021/09/02 08:40:06;;;;;;;25.80;15.83;;;;;;;;;;5032607;28;20457;-75
2021/09/02 08:42:32;;;;;;;25.20;17.20;;;;;;;;;;5015560;28;20409;-76
2021/09/02 08:44:58;;;;;;;31.60;17.00;;;;;;;;;;5032323;28;20512;-77
2021/09/02 08:47:24;;;;;;;23.87;15.20;;;;;;;;;;5033063;28;20424;-77
2021/09/02 08:49:50;;;;;;;20.00;13.93;;;;;;;;;;5032720;28;20408;-75
2021/09/02 08:52:17;;;;;;;24.07;17.70;;;;;;;;;;5033057;28;20880;-76
2021/09/02 08:54:43;;;;;;;27.03;17.27;;;;;;;;;;5032975;28;20415;-76
2021/09/02 08:57:09;;;;;;;23.43;15.67;;;;;;;;;;5032729;28;20411;-76
2021/09/02 08:59:34;;;;;;;20.30;15.37;;;;;;;;;;5032496;28;20429;-76
2021/09/02 09:02:00;;;;;;;16.50;13.43;;;;;;;;;;5032807;28;20413;-76
2021/09/02 09:04:34;;;;;;;17.17;11.87;;;;;;;;;;5032893;28;20448;-79
2021/09/02 09:07:00;;;;;;;19.73;13.13;;;;;;;;;;5014744;28;20871;-78
2021/09/02 09:09:26;;;;;;;16.87;13.27;;;;;;;;;;5032771;28;20556;-80
2021/09/02 09:11:53;;;;;;;17.77;13.40;;;;;;;;;;5032946;28;20416;-78
2021/09/02 09:14:23;;;;;;;18.57;13.93;;;;;;;;;;5015243;28;20416;-79
2021/09/02 09:16:50;;;;;;;18.13;14.43;;;;;;;;;;5033018;28;20754;-81
2021/09/02 09:19:35;;;;;;;20.60;15.53;;;;;;;;;;5032281;28;20420;-81
2021/09/02 09:22:01;;;;;;;20.97;15.10;;;;;;;;;;5032844;28;20412;-80
2021/09/02 09:24:48;;;;;;;27.80;14.97;;;;;;;;;;5032888;28;20404;-79
2021/09/02 09:27:15;;;;;;;18.83;15.13;;;;;;;;;;5032515;28;20460;-77
2021/09/02 09:29:41;;;;;;;21.80;15.40;;;;;;;;;;5032340;28;20551;-78
2021/09/02 09:32:18;;;;;;;21.53;16.50;;;;;;;;;;5032686;28;20401;-80
2021/09/02 09:34:48;;;;;;;20.83;16.80;;;;;;;;;;5032808;28;20412;-80
2021/09/02 09:37:14;;;;;;;24.10;18.77;;;;;;;;;;5015099;28;20405;-79
2021/09/02 09:39:40;;;;;;;26.53;17.50;;;;;;;;;;5014337;28;20582;-79
2021/09/02 09:42:06;;;;;;;29.67;17.87;;;;;;;;;;5032682;28;20421;-81
2021/09/02 09:44:32;;;;;;;23.13;17.30;;;;;;;;;;5032621;28;20432;-78
2021/09/02 09:47:01;;;;;;;24.73;17.33;;;;;;;;;;5032452;28;20463;-80
2021/09/02 09:49:40;;;;;;;22.50;15.53;;;;;;;;;;5031921;28;20787;-78
2021/09/02 09:52:16;;;;;;;21.63;18.10;;;;;;;;;;5032553;28;20780;-80
2021/09/02 09:54:42;;;;;;;22.80;16.47;;;;;;;;;;5032584;28;20842;-82
2021/09/02 09:57:08;;;;;;;28.20;20.63;;;;;;;;;;5033087;28;20456;-78
2021/09/02 09:59:35;;;;;;;27.70;19.00;;;;;;;;;;5035549;28;20926;-78
2021/09/02 10:02:01;;;;;;;28.23;19.63;;;;;;;;;;5036174;28;20424;-78
2021/09/02 10:04:27;;;;;;;25.07;18.47;;;;;;;;;;5035855;28;20886;-80
2021/09/02 10:06:53;;;;;;;18.77;16.07;;;;;;;;;;5018177;28;20972;-82
2021/09/02 10:09:19;;;;;;;21.20;17.43;;;;;;;;;;5001572;28;20433;-79
2021/09/02 10:11:45;;;;;;;23.13;18.30;;;;;;;;;;5035830;28;20409;-82
2021/09/02 10:14:11;;;;;;;18.70;16.07;;;;;;;;;;5035876;28;20901;-83
2021/09/02 10:16:38;;;;;;;19.47;16.77;;;;;;;;;;5035815;28;20413;-81
2021/09/02 10:19:04;;;;;;;17.00;15.03;;;;;;;;;;5035206;28;20522;-78
2021/09/02 10:21:30;;;;;;;21.40;16.30;;;;;;;;;;5035508;28;20917;-79
2021/09/02 10:24:16;;;;;;;23.80;16.83;;;;;;;;;;5018082;28;20433;-81
2021/09/02 10:26:42;;;;;;;18.73;16.27;;;;;;;;;;5035749;28;20506;-82
2021/09/02 10:29:32;;;;;;;19.53;15.87;;;;;;;;;;5035195;28;20532;-79
2021/09/02 10:32:29;;;;;;;18.30;14.20;;;;;;;;;;5035525;28;20412;-81
2021/09/02 10:35:12;;;;;;;15.70;13.73;;;;;;;;;;5035303;28;20421;-81
2021/09/02 10:37:38;;;;;;;17.77;13.67;;;;;;;;;;5035308;28;20466;-77
2021/09/02 10:40:07;;;;;;;16.57;11.97;;;;;;;;;;5034814;28;20448;-79
2021/09/02 10:42:43;;;;;;;18.00;12.27;;;;;;;;;;5018049;28;20801;-80
2021/09/02 10:45:30;;;;;;;15.27;13.00;;;;;;;;;;5035137;28;20831;-77
2021/09/02 10:47:56;;;;;;;20.00;13.00;;;;;;;;;;5035116;28;20419;-81
2021/09/02 10:50:28;;;;;;;15.27;12.40;;;;;;;;;;5034820;28;20437;-79
2021/09/02 10:52:54;;;;;;;16.10;11.40;;;;;;;;;;5035189;28;20401;-77
2021/09/02 10:55:29;;;;;;;11.67;9.17;;;;;;;;;;5035059;28;20413;-77
2021/09/02 10:57:57;;;;;;;13.20;11.00;;;;;;;;;;5034768;28;20807;-77
2021/09/02 11:00:37;;;;;;;12.23;10.77;;;;;;;;;;5034517;28;20432;-75
2021/09/02 11:03:21;;;;;;;14.40;11.57;;;;;;;;;;5016141;28;20930;-76
2021/09/02 11:05:55;;;;;;;16.47;12.93;;;;;;;;;;5016944;28;20479;-79
2021/09/02 11:08:34;;;;;;;13.63;11.00;;;;;;;;;;5035027;28;20969;-78
2021/09/02 11:11:12;;;;;;;13.20;11.23;;;;;;;;;;5034891;28;20782;-77
2021/09/02 11:13:38;;;;;;;16.33;12.37;;;;;;;;;;5034985;28;20405;-79
2021/09/02 11:16:11;;;;;;;13.80;11.90;;;;;;;;;;5034358;28;20428;-75
2021/09/02 11:18:44;;;;;;;15.37;12.83;;;;;;;;;;5034489;28;20409;-77
2021/09/02 11:21:15;;;;;;;15.40;12.37;;;;;;;;;;5034261;28;20429;-76
2021/09/02 11:23:44;;;;;;;16.63;12.57;;;;;;;;;;5033784;28;20405;-78
2021/09/02 11:26:10;;;;;;;13.37;10.60;;;;;;;;;;5033889;28;20850;-76
2021/09/02 11:28:49;;;;;;;11.13;9.77;;;;;;;;;;5033675;28;20408;-75
2021/09/02 11:31:15;;;;;;;11.43;10.13;;;;;;;;;;5032637;28;20417;-76
2021/09/02 11:33:48;;;;;;;11.70;10.30;;;;;;;;;;5033777;28;20936;-78
2021/09/02 11:36:14;;;;;;;13.07;10.70;;;;;;;;;;5033625;28;20428;-76
2021/09/02 11:38:43;;;;;;;10.17;7.90;;;;;;;;;;5033421;28;20488;-75
2021/09/02 11:41:16;;;;;;;8.80;7.90;;;;;;;;;;5033490;28;20506;-76
2021/09/02 11:43:42;;;;;;;7.67;6.50;;;;;;;;;;5033580;28;20408;-79
2021/09/02 11:46:08;;;;;;;8.57;7.20;;;;;;;;;;5033585;28;20972;-79
2021/09/02 11:48:54;;;;;;;7.93;6.40;;;;;;;;;;5033719;28;20516;-77
2021/09/02 11:51:20;;;;;;;9.20;6.97;;;;;;;;;;5033986;28;20511;-76
2021/09/02 11:53:48;;;;;;;29.37;20.70;;;;;;;;;;5033985;28;20528;-76
2021/09/02 11:56:17;;;;;;;9.73;6.87;;;;;;;;;;5033852;28;20420;-76
2021/09/02 11:58:43;;;;;;;7.83;6.10;;;;;;;;;;5033400;28;20427;-78
2021/09/02 12:01:09;;;;;;;6.50;5.33;;;;;;;;;;5033690;28;20499;-78
2021/09/02 12:03:35;;;;;;;10.93;6.70;;;;;;;;;;5033681;28;20413;-80
2021/09/02 12:06:01;;;;;;;7.00;5.87;;;;;;;;;;5016106;28;20547;-80
2021/09/02 12:08:28;;;;;;;7.73;6.07;;;;;;;;;;5015832;28;20414;-81
2021/09/02 12:10:54;;;;;;;7.80;6.00;;;;;;;;;;5033216;28;20436;-81
2021/09/02 12:13:21;;;;;;;10.27;7.07;;;;;;;;;;5033712;28;20433;-80
2021/09/02 12:16:01;;;;;;;5.80;5.20;;;;;;;;;;5033751;28;20417;-80
2021/09/02 12:18:30;;;;;;;9.07;6.70;;;;;;;;;;5033310;28;20962;-77
2021/09/02 12:21:06;;;;;;;7.50;6.47;;;;;;;;;;5032454;28;20452;-78
2021/09/02 12:23:32;;;;;;;7.20;6.10;;;;;;;;;;5033419;28;20400;-78
2021/09/02 12:26:02;;;;;;;7.70;6.90;;;;;;;;;;5033303;28;20467;-79
2021/09/02 12:28:39;;;;;;;8.90;7.00;;;;;;;;;;5033624;28;20405;-80
2021/09/02 12:31:15;;;;;;;7.10;6.07;;;;;;;;;;5033409;28;20416;-78
2021/09/02 12:34:14;;;;;;;9.50;6.67;;;;;;;;;;5033612;28;20409;-80
2021/09/02 12:36:41;;;;;;;6.27;5.40;;;;;;;;;;5000098;28;20428;-76
2021/09/02 12:39:20;;;;;;;10.10;5.40;;;;;;;;;;5032961;28;20424;-78
2021/09/02 12:41:48;;;;;;;6.60;5.40;;;;;;;;;;5033131;28;20424;-77
2021/09/02 12:44:20;;;;;;;5.33;4.70;;;;;;;;;;5033034;28;20401;-77
2021/09/02 12:46:49;;;;;;;5.27;4.80;;;;;;;;;;5033062;28;20456;-78
2021/09/02 12:49:15;;;;;;;6.87;5.70;;;;;;;;;;5032348;28;20449;-77
2021/09/02 12:51:41;;;;;;;5.63;4.47;;;;;;;;;;5033145;28;20474;-78
2021/09/02 12:54:07;;;;;;;7.20;4.70;;;;;;;;;;5032862;28;20409;-76
2021/09/02 12:56:37;;;;;;;5.73;5.23;;;;;;;;;;5015599;28;20413;-78
2021/09/02 12:59:03;;;;;;;5.67;4.63;;;;;;;;;;5032434;28;20460;-77
2021/09/02 13:01:29;;;;;;;7.50;4.93;;;;;;;;;;5032866;28;20417;-78
2021/09/02 13:03:59;;;;;;;7.37;6.53;;;;;;;;;;5032908;28;20480;-78
2021/09/02 13:06:25;;;;;;;7.40;6.07;;;;;;;;;;5032843;28;20448;-78
2021/09/02 13:08:51;;;;;;;5.23;4.70;;;;;;;;;;5032309;28;20773;-77
2021/09/02 13:11:17;;;;;;;13.67;6.73;;;;;;;;;;5032634;28;20463;-78
2021/09/02 13:13:43;;;;;;;6.10;5.50;;;;;;;;;;5032761;28;20409;-80
2021/09/02 13:16:09;;;;;;;6.10;5.50;;;;;;;;;;5032881;28;20777;-79
2021/09/02 13:18:35;;;;;;;7.90;6.30;;;;;;;;;;5032116;28;20413;-80
2021/09/02 13:21:01;;;;;;;6.60;5.33;;;;;;;;;;5032181;28;20429;-81
2021/09/02 13:23:27;;;;;;;7.37;6.67;;;;;;;;;;5032224;28;20428;-81
2021/09/02 13:25:52;;;;;;;8.10;5.23;;;;;;;;;;5032639;28;20794;-82
2021/09/02 13:28:18;;;;;;;8.30;5.30;;;;;;;;;;5032742;28;20541;-80
2021/09/02 13:30:44;;;;;;;7.63;5.00;;;;;;;;;;5032289;28;20421;-80
2021/09/02 13:33:11;;;;;;;5.60;4.73;;;;;;;;;;5036507;28;20413;-79
2021/09/02 13:35:37;;;;;;;5.83;5.23;;;;;;;;;;5036608;28;20441;-81
2021/09/02 13:38:03;;;;;;;5.60;4.77;;;;;;;;;;5002545;28;20421;-82
2021/09/02 13:40:29;;;;;;;6.20;4.93;;;;;;;;;;5035922;28;20460;-80
2021/09/02 13:42:56;;;;;;;6.23;5.33;;;;;;;;;;5036562;28;20444;-79
2021/09/02 13:45:22;;;;;;;6.43;5.73;;;;;;;;;;5036354;28;20419;-80
2021/09/02 13:47:48;;;;;;;5.93;5.00;;;;;;;;;;5036303;28;20436;-81
2021/09/02 13:50:15;;;;;;;6.00;4.77;;;;;;;;;;5035985;28;20930;-81
2021/09/02 13:52:41;;;;;;;5.83;4.80;;;;;;;;;;5018554;28;20425;-80
2021/09/02 13:55:09;;;;;;;6.30;4.90;;;;;;;;;;5036208;28;20454;-81
2021/09/02 13:57:36;;;;;;;6.73;4.80;;;;;;;;;;5036045;28;20983;-80
2021/09/02 14:00:02;;;;;;;6.33;5.00;;;;;;;;;;5035706;28;20436;-84
2021/09/02 14:02:28;;;;;;;5.80;4.70;;;;;;;;;;5036058;28;20841;-82
2021/09/02 14:04:54;;;;;;;6.53;4.50;;;;;;;;;;5035971;28;20421;-80
2021/09/02 14:07:20;;;;;;;5.40;4.90;;;;;;;;;;5035453;28;20463;-80
2021/09/02 14:09:46;;;;;;;5.40;4.67;;;;;;;;;;5035339;28;20425;-81
2021/09/02 14:12:12;;;;;;;5.23;4.30;;;;;;;;;;5035885;28;20424;-81
2021/09/02 14:14:38;;;;;;;5.17;4.67;;;;;;;;;;5035539;28;20775;-81
2021/09/02 14:17:04;;;;;;;5.00;4.37;;;;;;;;;;5018492;28;20413;-80
2021/09/02 14:19:30;;;;;;;4.90;4.40;;;;;;;;;;5035266;28;20429;-78
2021/09/02 14:21:56;;;;;;;6.97;5.27;;;;;;;;;;5035509;28;20431;-80